Time;durP1;ratioP1;P1;durP2;ratioP2;P2;SDS_P1;SDS_P2;PMS_P1;PMS_P2;Temp;Humidity;BMP_temperature;BMP_pressure;BME280_temperature;BME280_humidity;BME280_pressure;Samples;Min_cycle;Max_cycle;Signal;HPM_P1;HPM_P2
2021/06/13 00:01:23;;;;;;;8.63;3.92;;;14.90;67.50;;;;;;5072502;28;20028;-71
2021/06/13 00:03:50;;;;;;;8.52;3.85;;;14.80;67.50;;;;;;5072283;28;20051;-71
2021/06/13 00:06:15;;;;;;;7.40;4.05;;;14.80;67.70;;;;;;5072578;28;20024;-72
2021/06/13 00:08:41;;;;;;;7.68;4.07;;;14.70;67.90;;;;;;5071076;28;20393;-71
2021/06/13 00:11:07;;;;;;;7.05;3.60;;;14.70;67.90;;;;;;5072497;28;20035;-71
2021/06/13 00:13:33;;;;;;;7.97;4.15;;;14.70;68.00;;;;;;5071072;28;20024;-71
2021/06/13 00:15:59;;;;;;;9.07;4.05;;;14.70;68.00;;;;;;5072680;28;20055;-71
2021/06/13 00:18:25;;;;;;;7.45;3.90;;;14.70;68.10;;;;;;5075180;28;20032;-71
2021/06/13 00:20:51;;;;;;;8.27;4.20;;;14.60;68.20;;;;;;5074912;28;20024;-71
2021/06/13 00:23:17;;;;;;;8.50;3.65;;;14.50;68.30;;;;;;5076179;28;20425;-71
2021/06/13 00:25:44;;;;;;;7.13;4.00;;;14.50;68.70;;;;;;5074737;28;20032;-70
2021/06/13 00:28:10;;;;;;;10.63;4.30;;;14.50;68.70;;;;;;5074873;28;20055;-71
2021/06/13 00:30:35;;;;;;;8.88;4.05;;;14.50;68.80;;;;;;5074888;28;20052;-71
2021/06/13 00:33:01;;;;;;;9.55;4.10;;;14.50;68.90;;;;;;5075993;28;20028;-72
2021/06/13 00:35:27;;;;;;;9.10;4.25;;;14.50;68.90;;;;;;5074668;28;20119;-71
2021/06/13 00:37:53;;;;;;;11.07;4.35;;;14.50;68.90;;;;;;5074716;28;20025;-71
2021/06/13 00:40:21;;;;;;;8.73;4.10;;;14.40;69.00;;;;;;5074517;28;20094;-71
2021/06/13 00:42:47;;;;;;;10.13;4.00;;;14.50;69.10;;;;;;5074347;28;20035;-71
2021/06/13 00:45:14;;;;;;;7.82;4.15;;;14.50;69.00;;;;;;5074530;28;20020;-71
2021/06/13 00:47:40;;;;;;;8.82;4.20;;;14.50;68.90;;;;;;5074967;28;20115;-71
2021/06/13 00:50:34;;;;;;;7.03;4.50;;;14.50;68.90;;;;;;5074480;28;20119;-72
2021/06/13 00:53:04;;;;;;;10.30;4.05;;;14.50;69.10;;;;;;5064842;28;20040;-71
2021/06/13 00:55:30;;;;;;;7.53;4.55;;;14.50;69.10;;;;;;5075577;28;20043;-71
2021/06/13 00:57:56;;;;;;;8.35;4.60;;;14.50;69.30;;;;;;5074362;28;20081;-70
2021/06/13 01:00:22;;;;;;;10.73;4.57;;;14.40;69.30;;;;;;5074218;28;20028;-71
2021/06/13 01:02:48;;;;;;;10.25;4.50;;;14.40;69.40;;;;;;5074077;28;20028;-71
2021/06/13 01:05:14;;;;;;;8.32;4.25;;;14.40;69.40;;;;;;5075362;28;20107;-71
2021/06/13 01:08:14;;;;;;;8.98;4.35;;;14.40;69.50;;;;;;5074046;28;20488;-71
2021/06/13 01:10:51;;;;;;;10.40;4.82;;;14.40;69.80;;;;;;5075320;28;20039;-71
2021/06/13 01:13:28;;;;;;;10.15;4.90;;;14.40;69.80;;;;;;5075376;28;20502;-71
2021/06/13 01:16:02;;;;;;;9.35;4.40;;;14.30;69.90;;;;;;5074972;28;20040;-71
2021/06/13 01:18:43;;;;;;;8.32;4.50;;;14.30;70.00;;;;;;5073781;28;20050;-71
2021/06/13 01:25:05;;;;;;;8.57;4.40;;;14.40;70.10;;;;;;5075401;28;20039;-71
2021/06/13 01:27:54;;;;;;;9.40;4.45;;;14.40;70.10;;;;;;5073253;28;20031;-71
2021/06/13 01:30:26;;;;;;;10.65;4.50;;;14.30;70.10;;;;;;5074819;28;20108;-71
2021/06/13 01:32:53;;;;;;;13.65;4.72;;;14.30;70.10;;;;;;5075010;28;20025;-71
2021/06/13 01:35:23;;;;;;;7.63;4.40;;;14.30;70.30;;;;;;5073475;28;20059;-71
2021/06/13 01:37:54;;;;;;;9.90;4.65;;;14.20;70.40;;;;;;5073518;28;20024;-71
2021/06/13 01:40:23;;;;;;;9.40;4.60;;;14.20;70.50;;;;;;5074714;28;20388;-72
2021/06/13 01:42:54;;;;;;;10.45;4.60;;;14.10;70.60;;;;;;5073379;28;20056;-71
2021/06/13 01:45:26;;;;;;;8.57;4.75;;;14.10;70.80;;;;;;5074605;28;20029;-72
2021/06/13 01:47:52;;;;;;;10.60;4.68;;;14.00;70.90;;;;;;5074550;28;20024;-71
2021/06/13 01:50:22;;;;;;;12.02;4.90;;;14.00;71.00;;;;;;5073244;28;20495;-73
2021/06/13 01:52:51;;;;;;;7.95;4.47;;;14.00;71.00;;;;;;5074686;28;20029;-71
2021/06/13 01:55:20;;;;;;;11.13;4.45;;;14.00;71.20;;;;;;5074663;28;20039;-71
2021/06/13 01:57:47;;;;;;;10.95;5.15;;;14.00;71.20;;;;;;5073427;28;20516;-71
2021/06/13 02:00:14;;;;;;;7.95;4.53;;;14.00;71.30;;;;;;5074636;28;20025;-71
2021/06/13 02:02:44;;;;;;;7.55;4.03;;;13.90;71.30;;;;;;5072957;28;20056;-72
2021/06/13 02:05:12;;;;;;;8.15;3.83;;;14.00;71.40;;;;;;5074306;28;20479;-70
2021/06/13 02:07:39;;;;;;;8.30;4.30;;;14.00;71.50;;;;;;5073239;28;20036;-73
2021/06/13 02:10:08;;;;;;;8.48;4.50;;;13.90;71.40;;;;;;5074184;28;20027;-71
2021/06/13 02:12:37;;;;;;;8.15;4.60;;;14.00;71.50;;;;;;5074130;28;20096;-71
2021/06/13 02:15:04;;;;;;;10.68;4.90;;;13.80;71.70;;;;;;5073987;28;20040;-71
2021/06/13 02:17:33;;;;;;;10.48;4.53;;;13.80;71.80;;;;;;5072664;28;20043;-71
2021/06/13 02:19:59;;;;;;;10.90;4.70;;;13.80;72.00;;;;;;5073990;28;20029;-71
2021/06/13 02:22:26;;;;;;;7.85;4.20;;;13.70;72.00;;;;;;5072552;28;20048;-72
2021/06/13 02:24:51;;;;;;;10.18;4.53;;;13.70;72.10;;;;;;5073797;28;20028;-72
2021/06/13 02:27:23;;;;;;;8.77;4.97;;;13.70;72.20;;;;;;5073811;28;20086;-71
2021/06/13 02:29:49;;;;;;;10.50;4.53;;;13.70;72.30;;;;;;5074039;28;20024;-71
2021/06/13 02:32:16;;;;;;;7.60;4.32;;;13.70;72.30;;;;;;5074039;28;20028;-71
2021/06/13 02:34:47;;;;;;;9.80;5.22;;;13.70;72.40;;;;;;5073680;28;20098;-71
2021/06/13 02:37:14;;;;;;;8.57;4.40;;;13.70;72.50;;;;;;5073691;28;20025;-71
2021/06/13 02:39:40;;;;;;;6.32;3.90;;;13.70;72.50;;;;;;5072877;28;20075;-71
2021/06/13 02:42:07;;;;;;;11.15;4.78;;;13.70;72.50;;;;;;5073440;28;20480;-70
2021/06/13 02:44:33;;;;;;;8.05;5.00;;;13.70;72.60;;;;;;5073368;28;20104;-71
2021/06/13 02:46:59;;;;;;;7.47;4.57;;;13.70;72.70;;;;;;5073309;28;20579;-71
2021/06/13 02:49:25;;;;;;;7.88;4.38;;;13.60;72.70;;;;;;5072036;28;20115;-71
2021/06/13 02:52:06;;;;;;;8.95;4.45;;;13.60;72.80;;;;;;5073435;28;20032;-71
2021/06/13 02:54:34;;;;;;;9.50;4.15;;;13.70;73.00;;;;;;5072360;28;20056;-70
2021/06/13 02:57:01;;;;;;;9.55;4.57;;;13.60;72.90;;;;;;5071992;28;20035;-70
2021/06/13 02:59:35;;;;;;;9.70;4.30;;;13.60;72.90;;;;;;5071887;28;20036;-71
2021/06/13 03:02:05;;;;;;;10.70;4.53;;;13.50;73.10;;;;;;5073066;28;20111;-71
2021/06/13 03:04:32;;;;;;;9.57;4.28;;;13.50;73.10;;;;;;5071769;28;20135;-72
2021/06/13 03:06:59;;;;;;;8.63;4.88;;;13.50;73.20;;;;;;5072230;28;20035;-71
2021/06/13 03:09:28;;;;;;;9.82;4.45;;;13.40;73.30;;;;;;5071779;28;20442;-72
2021/06/13 03:11:55;;;;;;;8.18;4.53;;;13.40;73.40;;;;;;5072965;28;20020;-72
2021/06/13 03:14:23;;;;;;;7.32;4.47;;;13.30;73.40;;;;;;5072861;28;20499;-72
2021/06/13 03:16:49;;;;;;;11.75;4.63;;;13.30;73.60;;;;;;5071729;28;20017;-72
2021/06/13 03:19:17;;;;;;;9.60;4.82;;;13.30;73.70;;;;;;5071749;28;20017;-72
2021/06/13 03:21:46;;;;;;;9.90;4.72;;;13.30;73.80;;;;;;5071594;28;20035;-71
2021/06/13 03:27:59;;;;;;;11.02;5.25;;;13.20;74.10;;;;;;5072902;28;20526;-71
2021/06/13 03:30:26;;;;;;;8.43;4.70;;;13.20;74.20;;;;;;5071428;28;20031;-71
2021/06/13 03:32:52;;;;;;;8.68;4.53;;;13.20;74.10;;;;;;5072655;28;20029;-71
2021/06/13 03:35:19;;;;;;;9.02;4.60;;;13.10;74.20;;;;;;5072785;28;20099;-71
2021/06/13 03:37:45;;;;;;;12.85;5.22;;;13.10;74.90;;;;;;5072803;28;20036;-71
2021/06/13 03:40:12;;;;;;;10.20;5.38;;;13.10;74.30;;;;;;5071357;28;20058;-72
2021/06/13 03:42:39;;;;;;;8.82;4.82;;;13.10;74.50;;;;;;5072503;28;20544;-71
2021/06/13 03:45:05;;;;;;;8.18;4.88;;;13.10;74.50;;;;;;5072609;28;20012;-73
2021/06/13 03:47:32;;;;;;;10.27;4.97;;;13.10;74.60;;;;;;5071316;28;20495;-73
2021/06/13 03:49:59;;;;;;;10.07;4.85;;;13.10;74.70;;;;;;5071003;28;20488;-73
2021/06/13 03:52:26;;;;;;;11.43;5.45;;;13.10;74.70;;;;;;5071257;28;20028;-73
2021/06/13 03:54:52;;;;;;;12.63;4.82;;;13.20;74.80;;;;;;5072541;28;20029;-73
2021/06/13 03:57:21;;;;;;;9.27;4.80;;;13.10;74.80;;;;;;5072459;28;20033;-73
2021/06/13 03:59:48;;;;;;;11.93;4.65;;;13.20;74.90;;;;;;5072478;28;20447;-74
2021/06/13 04:02:15;;;;;;;9.80;5.07;;;13.20;74.90;;;;;;5072208;28;20021;-73
2021/06/13 04:04:47;;;;;;;12.20;5.20;;;13.20;75.00;;;;;;5071413;28;20475;-73
2021/06/13 04:07:14;;;;;;;8.93;5.03;;;13.20;75.10;;;;;;5072470;28;20031;-73
2021/06/13 04:09:42;;;;;;;12.40;5.60;;;13.20;75.10;;;;;;5072429;28;20063;-73
2021/06/13 04:12:13;;;;;;;11.77;5.35;;;13.20;75.10;;;;;;5071062;28;20125;-73
2021/06/13 04:14:38;;;;;;;8.77;5.10;;;13.20;75.10;;;;;;5071085;28;20385;-73
2021/06/13 04:17:05;;;;;;;11.00;5.10;;;13.20;75.10;;;;;;5070966;28;20078;-73
2021/06/13 04:19:32;;;;;;;12.52;5.50;;;13.20;75.20;;;;;;5072387;28;20025;-74
2021/06/13 04:21:58;;;;;;;9.40;5.25;;;13.20;75.20;;;;;;5072253;28;20047;-73
2021/06/13 04:24:24;;;;;;;12.60;5.20;;;13.30;75.20;;;;;;5070891;28;20031;-73
2021/06/13 04:26:50;;;;;;;12.15;5.13;;;13.30;75.20;;;;;;5070867;28;20059;-73
2021/06/13 04:29:16;;;;;;;9.30;4.97;;;13.40;75.20;;;;;;5072152;28;20496;-73
2021/06/13 04:31:41;;;;;;;8.90;4.90;;;13.40;75.20;;;;;;5072204;28;20102;-73
2021/06/13 04:34:07;;;;;;;10.25;4.80;;;13.40;75.20;;;;;;5070950;28;20122;-73
2021/06/13 04:36:33;;;;;;;11.93;5.07;;;13.40;75.20;;;;;;5072181;28;20035;-73
2021/06/13 04:38:58;;;;;;;10.05;4.78;;;13.50;75.20;;;;;;5072162;28;20107;-74
2021/06/13 04:41:24;;;;;;;11.00;4.82;;;13.50;75.20;;;;;;5070703;28;20516;-73
2021/06/13 04:43:50;;;;;;;12.68;5.47;;;13.50;75.20;;;;;;5072185;28;20120;-73
2021/06/13 04:46:26;;;;;;;8.18;5.15;;;13.50;75.20;;;;;;5070773;28;20027;-73
2021/06/13 04:48:52;;;;;;;9.77;4.70;;;13.50;75.20;;;;;;5070796;28;20028;-74
2021/06/13 04:51:19;;;;;;;10.55;5.50;;;13.50;75.20;;;;;;5070808;28;20090;-73
2021/06/13 04:53:49;;;;;;;9.32;4.75;;;13.50;75.80;;;;;;5070769;28;20067;-72
2021/06/13 04:56:19;;;;;;;11.05;5.60;;;13.60;75.20;;;;;;5071960;28;20043;-73
2021/06/13 04:58:45;;;;;;;9.20;4.82;;;13.70;75.10;;;;;;5070797;28;20043;-73
2021/06/13 05:01:11;;;;;;;11.57;4.63;;;13.80;75.00;;;;;;5071740;28;20448;-73
2021/06/13 05:03:36;;;;;;;8.73;4.50;;;13.80;75.00;;;;;;5073032;28;20051;-73
2021/06/13 05:06:02;;;;;;;10.13;4.07;;;13.90;74.80;;;;;;5074123;28;20048;-73
2021/06/13 05:08:29;;;;;;;8.13;4.70;;;14.00;74.80;;;;;;5074015;28;20020;-73
2021/06/13 05:10:56;;;;;;;9.75;4.38;;;14.00;74.70;;;;;;5074099;28;20036;-73
2021/06/13 05:13:22;;;;;;;8.27;4.20;;;14.00;74.70;;;;;;5075287;28;20033;-72
2021/06/13 05:15:48;;;;;;;11.07;4.30;;;14.10;74.70;;;;;;5073874;28;20044;-73
2021/06/13 05:18:13;;;;;;;10.25;4.45;;;14.10;74.70;;;;;;5073852;28;20037;-73
2021/06/13 05:20:39;;;;;;;11.48;5.55;;;14.10;74.70;;;;;;5075232;28;20040;-73
2021/06/13 05:23:06;;;;;;;7.68;4.43;;;14.10;74.60;;;;;;5073867;28;20116;-73
2021/06/13 05:25:35;;;;;;;11.25;4.57;;;14.20;74.60;;;;;;5075077;28;20021;-73
2021/06/13 05:28:03;;;;;;;9.38;4.00;;;14.20;74.60;;;;;;5073926;28;20048;-73
2021/06/13 05:30:31;;;;;;;8.93;4.20;;;14.30;74.50;;;;;;5073694;28;20530;-73
2021/06/13 05:32:58;;;;;;;7.53;4.10;;;14.30;74.40;;;;;;5073677;28;20016;-73
2021/06/13 05:35:24;;;;;;;8.32;4.13;;;14.40;74.30;;;;;;5075113;28;20048;-73
2021/06/13 05:37:50;;;;;;;7.78;3.63;;;14.50;74.20;;;;;;5074831;28;20029;-73
2021/06/13 05:43:39;;;;;;;7.10;3.60;;;14.60;73.90;;;;;;5074885;28;20038;-74
2021/06/13 05:46:05;;;;;;;6.22;3.80;;;14.70;73.70;;;;;;5074776;28;20016;-73
2021/06/13 05:48:32;;;;;;;8.25;3.83;;;14.70;73.50;;;;;;5073501;28;20028;-74
2021/06/13 05:50:59;;;;;;;8.50;3.60;;;14.80;73.50;;;;;;5073414;28;20121;-73
2021/06/13 05:53:24;;;;;;;5.95;3.40;;;14.80;73.30;;;;;;5073595;28;20059;-74
2021/06/13 05:55:50;;;;;;;6.63;3.40;;;14.80;73.10;;;;;;5073047;28;20053;-73
2021/06/13 05:58:16;;;;;;;6.32;3.70;;;14.90;73.00;;;;;;5074341;28;20087;-73
2021/06/13 06:00:41;;;;;;;4.75;3.22;;;14.90;72.90;;;;;;5073059;28;20115;-73
2021/06/13 06:03:07;;;;;;;8.38;3.25;;;15.00;72.80;;;;;;5072876;28;20044;-74
2021/06/13 06:05:34;;;;;;;7.35;3.50;;;15.00;72.60;;;;;;5073155;28;20563;-73
2021/06/13 06:08:01;;;;;;;9.98;3.70;;;15.10;72.50;;;;;;5074251;28;20091;-73
2021/06/13 06:10:29;;;;;;;7.68;3.38;;;15.10;72.20;;;;;;5072938;28;20020;-73
2021/06/13 06:12:56;;;;;;;7.72;3.00;;;15.20;72.10;;;;;;5073202;28;20695;-73
2021/06/13 06:15:23;;;;;;;7.05;3.25;;;15.30;71.90;;;;;;5071721;28;20036;-73
2021/06/13 06:17:49;;;;;;;7.32;3.20;;;15.30;71.60;;;;;;5073865;28;20063;-73
2021/06/13 06:20:17;;;;;;;7.03;2.80;;;15.30;71.40;;;;;;5072575;28;20032;-73
2021/06/13 06:22:44;;;;;;;9.30;3.40;;;15.40;71.20;;;;;;5072473;28;20064;-73
2021/06/13 06:25:11;;;;;;;5.65;3.20;;;15.40;70.90;;;;;;5073849;28;20089;-73
2021/06/13 06:27:37;;;;;;;7.78;3.05;;;15.40;70.70;;;;;;5072529;28;20559;-72
2021/06/13 06:30:05;;;;;;;8.73;3.10;;;15.40;70.60;;;;;;5072747;28;20388;-73
2021/06/13 06:32:30;;;;;;;8.10;2.90;;;15.50;70.50;;;;;;5072215;28;20029;-73
2021/06/13 06:34:56;;;;;;;6.55;2.80;;;15.50;70.30;;;;;;5072335;28;20035;-73
2021/06/13 06:37:22;;;;;;;5.72;2.55;;;15.60;70.20;;;;;;5072301;28;20024;-73
2021/06/13 06:39:47;;;;;;;6.68;2.90;;;15.60;69.90;;;;;;5072531;28;20119;-74
2021/06/13 06:42:13;;;;;;;5.38;2.70;;;15.70;69.70;;;;;;5072278;28;20032;-74
2021/06/13 06:44:39;;;;;;;6.20;2.42;;;15.80;69.50;;;;;;5073630;28;20399;-73
2021/06/13 06:47:04;;;;;;;6.22;2.80;;;15.80;69.10;;;;;;5073375;28;20132;-74
2021/06/13 06:49:34;;;;;;;7.78;2.83;;;15.90;69.00;;;;;;5072130;28;20040;-74
2021/06/13 06:52:00;;;;;;;6.07;2.50;;;16.00;68.70;;;;;;5071864;28;20071;-74
2021/06/13 06:54:26;;;;;;;6.00;2.75;;;16.00;68.40;;;;;;5073447;28;20048;-74
2021/06/13 06:56:52;;;;;;;4.47;2.60;;;16.10;68.10;;;;;;5073373;28;20368;-74
2021/06/13 06:59:18;;;;;;;5.32;2.50;;;16.10;67.80;;;;;;5073275;28;20025;-74
2021/06/13 07:01:47;;;;;;;7.22;2.67;;;16.20;67.70;;;;;;5073079;28;20097;-74
2021/06/13 07:04:12;;;;;;;6.18;2.35;;;16.30;67.50;;;;;;5071919;28;20025;-73
2021/06/13 07:06:38;;;;;;;5.28;2.40;;;16.40;67.20;;;;;;5073468;28;20028;-74
2021/06/13 07:09:04;;;;;;;5.45;2.30;;;16.40;66.90;;;;;;5073272;28;20032;-74
2021/06/13 07:11:30;;;;;;;5.82;2.50;;;16.60;66.70;;;;;;5071930;28;20020;-74
2021/06/13 07:13:56;;;;;;;4.75;2.50;;;16.60;66.30;;;;;;5071872;28;20056;-74
2021/06/13 07:16:22;;;;;;;6.75;2.78;;;16.70;66.10;;;;;;5073031;28;20060;-74
2021/06/13 07:18:49;;;;;;;4.95;2.35;;;16.80;65.80;;;;;;5071702;28;20032;-74
2021/06/13 07:21:14;;;;;;;5.97;2.15;;;17.00;65.60;;;;;;5071933;28;20024;-74
2021/06/13 07:23:40;;;;;;;5.43;2.42;;;17.10;65.20;;;;;;5072899;28;20157;-74
2021/06/13 07:26:06;;;;;;;4.30;2.53;;;17.20;64.80;;;;;;5072596;28;20033;-74
2021/06/13 07:28:33;;;;;;;6.35;2.50;;;17.30;64.50;;;;;;5073025;28;20032;-73
2021/06/13 07:31:00;;;;;;;4.93;2.50;;;17.30;64.30;;;;;;5071655;28;20093;-74
2021/06/13 07:33:26;;;;;;;5.63;2.70;;;17.40;64.10;;;;;;5071682;28;20037;-74
2021/06/13 07:35:52;;;;;;;6.20;2.65;;;17.40;63.90;;;;;;5071616;28;20036;-75
2021/06/13 07:38:18;;;;;;;3.95;2.50;;;17.40;63.70;;;;;;5071488;28;20503;-74
2021/06/13 07:40:44;;;;;;;4.70;2.65;;;17.50;63.50;;;;;;5071534;28;20029;-74
2021/06/13 07:43:09;;;;;;;4.50;2.65;;;17.50;63.30;;;;;;5072749;28;20467;-74
2021/06/13 07:45:35;;;;;;;5.82;3.08;;;17.60;63.10;;;;;;5072807;28;20056;-74
2021/06/13 07:48:04;;;;;;;4.43;2.60;;;17.60;62.70;;;;;;5072672;28;20032;-74
2021/06/13 07:50:29;;;;;;;4.60;2.30;;;17.60;62.40;;;;;;5071464;28;20480;-74
2021/06/13 07:52:55;;;;;;;4.38;2.80;;;17.60;62.40;;;;;;5071304;28;20032;-74
2021/06/13 07:55:21;;;;;;;4.18;2.53;;;17.50;62.20;;;;;;5071325;28;20507;-74
2021/06/13 07:57:47;;;;;;;6.38;2.78;;;17.50;62.30;;;;;;5072682;28;20045;-74
2021/06/13 08:00:16;;;;;;;5.03;2.70;;;17.40;62.10;;;;;;5071230;28;20064;-74
2021/06/13 08:02:42;;;;;;;7.65;3.08;;;17.40;62.10;;;;;;5071200;28;20025;-74
2021/06/13 08:05:13;;;;;;;6.93;2.80;;;17.40;62.00;;;;;;5071225;28;20116;-74
2021/06/13 08:07:39;;;;;;;8.18;2.65;;;17.50;61.90;;;;;;5071292;28;20404;-74
2021/06/13 08:10:07;;;;;;;4.97;2.50;;;17.50;61.80;;;;;;5071278;28;20451;-75
2021/06/13 08:12:33;;;;;;;5.88;2.90;;;17.50;61.50;;;;;;5072494;28;20037;-74
2021/06/13 08:14:59;;;;;;;3.08;2.03;;;17.50;61.50;;;;;;5070968;28;20052;-77
2021/06/13 08:17:25;;;;;;;7.25;2.60;;;17.60;61.30;;;;;;5072720;28;20477;-76
2021/06/13 08:19:51;;;;;;;4.40;2.58;;;17.60;61.40;;;;;;5071754;28;20036;-76
2021/06/13 08:22:17;;;;;;;6.78;2.85;;;17.70;61.20;;;;;;5071446;28;20028;-77
2021/06/13 08:24:43;;;;;;;3.55;2.28;;;17.80;61.10;;;;;;5072657;28;20059;-77
2021/06/13 08:27:08;;;;;;;3.42;2.30;;;17.80;60.90;;;;;;5071447;28;20021;-77
2021/06/13 08:29:34;;;;;;;7.72;2.80;;;17.80;60.80;;;;;;5071348;28;20534;-77
2021/06/13 08:32:00;;;;;;;3.47;2.30;;;17.90;60.60;;;;;;5071613;28;20082;-82
2021/06/13 08:34:26;;;;;;;5.93;2.33;;;17.80;60.40;;;;;;5071336;28;20033;-80
2021/06/13 08:36:53;;;;;;;6.00;2.42;;;17.80;60.40;;;;;;5072451;28;20159;-78
2021/06/13 08:39:18;;;;;;;5.35;2.13;;;17.90;60.40;;;;;;5074898;28;20089;-79
2021/06/13 08:41:44;;;;;;;7.53;2.70;;;17.80;60.20;;;;;;5075963;28;20535;-78
2021/06/13 08:44:11;;;;;;;5.95;2.33;;;17.90;60.20;;;;;;5076087;28;20024;-80
2021/06/13 08:46:38;;;;;;;4.75;2.50;;;17.90;60.20;;;;;;5076066;28;20465;-80
2021/06/13 08:49:04;;;;;;;4.80;2.25;;;18.00;60.20;;;;;;5074837;28;20423;-79
2021/06/13 08:51:29;;;;;;;4.20;2.60;;;18.00;60.00;;;;;;5074916;28;20036;-79
2021/06/13 08:53:55;;;;;;;3.97;2.38;;;18.10;59.90;;;;;;5075124;28;20035;-79
2021/06/13 08:56:24;;;;;;;5.45;2.42;;;18.10;59.70;;;;;;5074614;28;20029;-81
2021/06/13 08:58:51;;;;;;;5.53;2.80;;;18.10;59.50;;;;;;5075950;28;20104;-81
2021/06/13 09:01:18;;;;;;;6.20;2.67;;;18.20;59.60;;;;;;5076006;28;20020;-78
2021/06/13 09:03:44;;;;;;;4.80;2.22;;;18.20;59.60;;;;;;5075851;28;20028;-80
2021/06/13 09:06:11;;;;;;;5.63;2.72;;;18.20;59.60;;;;;;5075904;28;20024;-79
2021/06/13 09:08:39;;;;;;;5.20;2.67;;;18.20;59.60;;;;;;5075817;28;20392;-80
2021/06/13 09:11:06;;;;;;;5.20;2.88;;;18.30;59.50;;;;;;5074587;28;20384;-79
2021/06/13 09:13:34;;;;;;;6.43;2.60;;;18.30;59.50;;;;;;5076038;28;20025;-80
2021/06/13 09:16:02;;;;;;;6.38;2.50;;;18.40;59.50;;;;;;5075604;28;20132;-79
2021/06/13 09:18:37;;;;;;;3.83;2.30;;;18.40;59.30;;;;;;5074573;28;20048;-83
2021/06/13 09:21:26;;;;;;;5.72;2.55;;;18.50;59.30;;;;;;5075552;28;20106;-74
2021/06/13 09:23:52;;;;;;;5.40;2.60;;;18.50;59.20;;;;;;5073580;28;20400;-74
2021/06/13 09:26:19;;;;;;;5.22;3.00;;;18.40;59.20;;;;;;5075483;28;20033;-74
2021/06/13 09:28:48;;;;;;;3.17;2.25;;;18.40;59.30;;;;;;5078023;28;20032;-81
2021/06/13 09:31:24;;;;;;;4.82;2.75;;;18.40;59.20;;;;;;5075790;28;20036;-79
2021/06/13 09:33:52;;;;;;;5.47;2.50;;;18.40;59.10;;;;;;5075828;28;20037;-81
2021/06/13 09:36:24;;;;;;;5.53;2.70;;;18.50;59.20;;;;;;5076292;28;20028;-81
2021/06/13 09:38:54;;;;;;;4.88;2.65;;;18.60;59.10;;;;;;5075885;28;20112;-82
2021/06/13 09:41:22;;;;;;;4.93;2.30;;;18.60;59.00;;;;;;5074380;28;20063;-82
2021/06/13 09:43:51;;;;;;;4.65;2.78;;;18.60;58.90;;;;;;5075242;28;20028;-82
2021/06/13 09:46:17;;;;;;;5.53;2.65;;;18.60;58.90;;;;;;5078513;28;20024;-82
2021/06/13 09:48:52;;;;;;;4.78;2.75;;;18.60;58.80;;;;;;5073676;28;20032;-83
2021/06/13 09:51:32;;;;;;;7.15;2.67;;;18.60;58.70;;;;;;5072884;28;20079;-80
2021/06/13 09:53:58;;;;;;;3.75;2.30;;;18.60;58.80;;;;;;5076173;28;20397;-80
2021/06/13 09:56:38;;;;;;;4.40;2.60;;;18.70;58.70;;;;;;5075913;28;20443;-80
2021/06/13 09:59:18;;;;;;;4.68;2.60;;;18.80;58.60;;;;;;5075867;28;20033;-80
2021/06/13 10:01:48;;;;;;;4.35;2.65;;;18.80;58.40;;;;;;5074660;28;20474;-80
2021/06/13 10:04:17;;;;;;;4.60;2.60;;;18.90;58.40;;;;;;5075928;28;20031;-79
2021/06/13 10:06:46;;;;;;;4.55;2.70;;;18.90;58.40;;;;;;5075931;28;20025;-80
2021/06/13 10:09:13;;;;;;;5.10;2.45;;;19.00;58.20;;;;;;5076520;28;20092;-82
2021/06/13 10:11:39;;;;;;;4.32;2.58;;;19.00;58.10;;;;;;5073954;28;20504;-83
2021/06/13 10:14:17;;;;;;;5.00;2.28;;;19.00;58.00;;;;;;5073395;28;20028;-83
2021/06/13 10:16:47;;;;;;;6.25;2.50;;;19.10;58.10;;;;;;5074252;28;20044;-82
2021/06/13 10:19:24;;;;;;;5.28;2.83;;;19.10;58.00;;;;;;5074428;28;20028;-81
2021/06/13 10:21:52;;;;;;;4.85;2.67;;;19.10;57.80;;;;;;5075032;28;20025;-82
2021/06/13 10:24:25;;;;;;;7.25;2.72;;;19.20;58.30;;;;;;5075362;28;20391;-82
2021/06/13 10:27:00;;;;;;;4.10;2.70;;;19.20;57.50;;;;;;5074363;28;20039;-82
2021/06/13 10:29:28;;;;;;;4.45;2.55;;;19.20;57.30;;;;;;5073101;28;20541;-82
2021/06/13 10:31:56;;;;;;;6.28;3.22;;;19.30;57.20;;;;;;5074960;28;20021;-83
2021/06/13 10:34:23;;;;;;;6.78;2.97;;;19.40;57.00;;;;;;5077529;28;20017;-82
2021/06/13 10:36:50;;;;;;;4.13;2.33;;;19.50;56.70;;;;;;5075924;28;20024;-82
2021/06/13 10:39:18;;;;;;;4.85;2.72;;;19.60;56.60;;;;;;5073984;28;20392;-82
2021/06/13 10:41:45;;;;;;;3.92;2.45;;;19.70;56.20;;;;;;5074980;28;20095;-82
2021/06/13 10:44:13;;;;;;;6.38;2.47;;;19.80;56.50;;;;;;5075055;28;20030;-82
2021/06/13 10:46:41;;;;;;;4.93;2.40;;;19.80;55.80;;;;;;5077930;28;20028;-82
2021/06/13 10:49:46;;;;;;;3.95;2.40;;;19.90;55.60;;;;;;5077780;28;20028;-81
2021/06/13 10:52:23;;;;;;;5.57;2.67;;;20.10;55.40;;;;;;5072767;28;20040;-83
2021/06/13 10:54:49;;;;;;;5.70;2.50;;;20.10;55.20;;;;;;5072437;28;20090;-79
2021/06/13 10:57:14;;;;;;;5.53;2.65;;;20.20;55.00;;;;;;5073441;28;20029;-80
2021/06/13 10:59:45;;;;;;;3.58;2.50;;;20.20;55.00;;;;;;5071846;28;20025;-80
2021/06/13 11:02:13;;;;;;;6.90;2.95;;;20.30;54.80;;;;;;5073108;28;20507;-79
2021/06/13 11:04:48;;;;;;;4.18;2.45;;;20.40;54.50;;;;;;5072307;28;20032;-81
2021/06/13 11:07:41;;;;;;;4.60;2.25;;;20.50;54.20;;;;;;5072349;28;20033;-82
2021/06/13 11:12:51;;;;;;;7.15;2.60;;;20.70;54.10;;;;;;5073375;28;20048;-78
2021/06/13 11:15:41;;;;;;;3.63;2.25;;;20.80;53.60;;;;;;5073073;28;20086;-79
2021/06/13 11:18:16;;;;;;;4.75;2.83;;;21.00;53.30;;;;;;5072171;28;20043;-78
2021/06/13 11:20:54;;;;;;;3.92;2.15;;;21.20;53.20;;;;;;5071915;28;20484;-79
2021/06/13 11:23:25;;;;;;;5.60;2.28;;;21.30;52.90;;;;;;5071834;28;20040;-79
2021/06/13 11:25:53;;;;;;;4.90;2.63;;;21.40;52.60;;;;;;5073799;28;20551;-79
2021/06/13 11:28:35;;;;;;;5.18;2.50;;;21.40;52.20;;;;;;5072162;28;20558;-80
2021/06/13 11:31:09;;;;;;;5.55;2.78;;;21.50;51.80;;;;;;5072889;28;20439;-80
2021/06/13 11:33:38;;;;;;;5.30;2.55;;;21.60;52.00;;;;;;5074650;28;20477;-79
2021/06/13 11:36:29;;;;;;;4.55;2.60;;;21.60;51.30;;;;;;5073689;28;20561;-79
2021/06/13 11:39:04;;;;;;;4.95;2.78;;;21.80;51.30;;;;;;5073266;28;20424;-80
2021/06/13 11:41:31;;;;;;;4.90;2.25;;;21.90;50.70;;;;;;5075559;28;20032;-80
2021/06/13 11:44:00;;;;;;;4.50;2.15;;;22.00;50.90;;;;;;5073199;28;20056;-79
2021/06/13 11:46:31;;;;;;;5.93;2.83;;;22.10;50.70;;;;;;5074820;28;20025;-80
2021/06/13 11:48:57;;;;;;;4.78;2.50;;;22.30;50.20;;;;;;5073031;28;20118;-80
2021/06/13 11:51:23;;;;;;;4.50;2.70;;;22.40;49.60;;;;;;5074838;28;20107;-80
2021/06/13 11:53:59;;;;;;;4.72;2.20;;;22.40;49.50;;;;;;5073392;28;20177;-80
2021/06/13 11:56:34;;;;;;;5.57;2.42;;;22.60;49.40;;;;;;5074547;28;20043;-80
2021/06/13 11:59:03;;;;;;;4.45;2.28;;;22.70;48.80;;;;;;5072019;28;20036;-79
2021/06/13 12:01:32;;;;;;;4.72;2.45;;;22.80;48.80;;;;;;5072615;28;20025;-80
2021/06/13 12:03:58;;;;;;;6.15;2.40;;;22.90;48.40;;;;;;5072528;28;20039;-79
2021/06/13 12:06:24;;;;;;;4.53;2.30;;;23.00;48.40;;;;;;5071721;28;20029;-80
2021/06/13 12:08:52;;;;;;;4.10;2.63;;;23.00;48.20;;;;;;5072617;28;20013;-80
2021/06/13 12:11:35;;;;;;;4.85;2.38;;;23.10;48.30;;;;;;5073106;28;20032;-79
2021/06/13 12:14:19;;;;;;;4.57;2.40;;;23.20;48.30;;;;;;5076610;28;20043;-80
2021/06/13 12:16:50;;;;;;;4.65;2.60;;;23.30;48.10;;;;;;5075411;28;20392;-80
2021/06/13 12:19:25;;;;;;;4.82;2.22;;;23.40;48.00;;;;;;5076884;28;20024;-80
2021/06/13 12:21:51;;;;;;;3.83;2.33;;;23.50;47.80;;;;;;5076039;28;20068;-79
2021/06/13 12:27:23;;;;;;;7.05;2.72;;;23.60;47.30;;;;;;5066636;28;20476;-80
2021/06/13 12:29:50;;;;;;;5.28;2.58;;;23.70;46.50;;;;;;5076118;28;20029;-80
2021/06/13 12:32:17;;;;;;;4.03;2.53;;;23.70;46.60;;;;;;5076844;28;20031;-80
2021/06/13 12:34:46;;;;;;;6.70;2.70;;;23.70;46.60;;;;;;5076943;28;20032;-80
2021/06/13 12:37:17;;;;;;;4.63;2.70;;;23.80;46.30;;;;;;5076592;28;20034;-79
2021/06/13 12:40:18;;;;;;;2.63;2.38;;;23.80;46.20;;;;;;5077668;28;20086;-79
2021/06/13 12:42:46;;;;;;;5.20;2.75;;;24.00;46.20;;;;;;5073307;28;20033;-80
2021/06/13 12:45:15;;;;;;;4.25;2.60;;;24.10;45.80;;;;;;5077332;28;20032;-78
2021/06/13 12:47:44;;;;;;;4.28;2.30;;;24.10;45.20;;;;;;5074764;28;20071;-76
2021/06/13 12:50:19;;;;;;;5.00;2.20;;;24.20;45.40;;;;;;5074749;28;20111;-77
2021/06/13 12:52:49;;;;;;;2.80;2.33;;;24.20;45.10;;;;;;5074998;28;20032;-78
2021/06/13 12:55:15;;;;;;;3.28;2.15;;;24.30;45.00;;;;;;5075995;28;20480;-77
2021/06/13 12:57:44;;;;;;;3.25;2.00;;;24.50;45.10;;;;;;5074839;28;20063;-77
2021/06/13 13:00:10;;;;;;;2.58;2.10;;;24.70;45.00;;;;;;5076675;28;20051;-78
2021/06/13 13:02:36;;;;;;;4.80;2.50;;;24.80;44.80;;;;;;5074609;28;20025;-79
2021/06/13 13:05:02;;;;;;;4.13;2.42;;;25.00;44.50;;;;;;5075709;28;20033;-78
2021/06/13 13:07:36;;;;;;;4.35;2.20;;;25.10;44.30;;;;;;5074798;28;20029;-78
2021/06/13 13:10:20;;;;;;;6.80;2.30;;;25.20;42.90;;;;;;5075682;28;20032;-77